TimeCST,TemperatureF,Dew PointF,Humidity,Sea Level PressureIn,VisibilityMPH,Wind Direction,Wind SpeedMPH,Gust SpeedMPH,PrecipitationIn,Events,Conditions,WindDirDegrees,DateUTC
12:53 AM,28.9,25.0,85,30.27,10.0,Calm,Calm,-,N/A,,Clear,0,2012-12-14 06:53:00
1:53 AM,28.9,26.1,89,30.26,9.0,Calm,Calm,-,N/A,,Clear,0,2012-12-14 07:53:00
2:53 AM,28.9,25.0,85,30.26,10.0,Calm,Calm,-,N/A,,Clear,0,2012-12-14 08:53:00
3:53 AM,27.0,23.0,85,30.27,10.0,Calm,Calm,-,N/A,,Clear,0,2012-12-14 09:53:00
4:53 AM,28.0,24.1,85,30.27,10.0,Calm,Calm,-,N/A,,Clear,0,2012-12-14 10:53:00
5:53 AM,27.0,23.0,85,30.27,9.0,Calm,Calm,-,N/A,,Clear,0,2012-12-14 11:53:00
6:53 AM,27.0,24.1,89,30.29,10.0,Calm,Calm,-,N/A,,Clear,0,2012-12-14 12:53:00
7:53 AM,30.9,26.1,82,30.29,9.0,Calm,Calm,-,N/A,,Clear,0,2012-12-14 13:53:00
8:53 AM,37.0,32.0,82,30.29,9.0,Calm,Calm,-,N/A,,Clear,0,2012-12-14 14:53:00
9:53 AM,45.0,34.0,65,30.30,10.0,South,6.9,-,N/A,,Clear,180,2012-12-14 15:53:00
10:53 AM,48.9,33.1,54,30.27,10.0,SSW,9.2,-,N/A,,Clear,200,2012-12-14 16:53:00
11:53 AM,52.0,34.0,50,30.25,10.0,SSW,6.9,-,N/A,,Clear,200,2012-12-14 17:53:00
12:53 PM,52.0,34.0,50,30.21,10.0,SSW,4.6,-,N/A,,Clear,210,2012-12-14 18:53:00
1:53 PM,53.1,33.1,47,30.19,10.0,SSW,6.9,-,N/A,,Clear,200,2012-12-14 19:53:00
2:53 PM,53.1,34.0,48,30.18,10.0,South,5.8,-,N/A,,Clear,190,2012-12-14 20:53:00
3:53 PM,50.0,37.0,61,30.14,10.0,SE,4.6,-,N/A,,Clear,130,2012-12-14 21:53:00
4:53 PM,48.0,37.9,68,30.13,10.0,ESE,5.8,-,N/A,,Clear,120,2012-12-14 22:53:00
5:53 PM,48.0,37.9,68,30.11,10.0,SE,3.5,-,N/A,,Clear,140,2012-12-14 23:53:00
6:53 PM,48.0,37.9,68,30.12,10.0,SSE,4.6,-,N/A,,Clear,150,2012-12-15 00:53:00
7:53 PM,45.0,39.0,80,30.11,10.0,Calm,Calm,-,N/A,,Clear,0,2012-12-15 01:53:00
8:53 PM,46.0,39.0,76,30.09,10.0,Calm,Calm,-,N/A,,Scattered Clouds,0,2012-12-15 02:53:00
9:53 PM,45.0,39.9,82,30.10,10.0,Calm,Calm,-,0.00,Rain,Light Rain,0,2012-12-15 03:53:00
10:53 PM,44.1,42.1,93,30.06,10.0,Calm,Calm,-,0.00,,Scattered Clouds,0,2012-12-15 04:53:00
11:53 PM,46.9,39.9,77,30.02,8.0,SSE,5.8,-,0.01,Rain,Light Rain,160,2012-12-15 05:53:00